sensor_id;sensor_type;location;lat;lon;timestamp;pressure;altitude;pressure_sealevel;temperature;humidity
3780;BME280;1905;52.482;9.802;2023-04-30T00:00:29;101797.00;;;8.97;69.26
3780;BME280;1905;52.482;9.802;2023-04-30T00:02:56;101802.31;;;8.96;68.90
3780;BME280;1905;52.482;9.802;2023-04-30T00:05:24;101805.81;;;8.95;69.89
3780;BME280;1905;52.482;9.802;2023-04-30T00:07:51;101800.66;;;8.90;69.21
3780;BME280;1905;52.482;9.802;2023-04-30T00:10:19;101802.50;;;8.84;69.92
3780;BME280;1905;52.482;9.802;2023-04-30T00:12:47;101809.63;;;8.80;69.91
3780;BME280;1905;52.482;9.802;2023-04-30T00:15:15;101814.94;;;8.77;69.71
3780;BME280;1905;52.482;9.802;2023-04-30T00:17:43;101806.25;;;8.72;70.02
3780;BME280;1905;52.482;9.802;2023-04-30T00:20:11;101806.25;;;8.72;69.44
3780;BME280;1905;52.482;9.802;2023-04-30T00:22:39;101809.84;;;8.68;69.75
3780;BME280;1905;52.482;9.802;2023-04-30T00:25:07;101810.72;;;8.67;69.57
3780;BME280;1905;52.482;9.802;2023-04-30T00:27:34;101822.22;;;8.62;70.13
3780;BME280;1905;52.482;9.802;2023-04-30T00:30:06;101816.22;;;8.54;69.53
3780;BME280;1905;52.482;9.802;2023-04-30T00:32:35;101820.66;;;8.53;70.06
3780;BME280;1905;52.482;9.802;2023-04-30T00:35:03;101823.28;;;8.52;69.65
3780;BME280;1905;52.482;9.802;2023-04-30T00:37:31;101825.13;;;8.47;69.75
3780;BME280;1905;52.482;9.802;2023-04-30T00:39:58;101828.72;;;8.41;69.89
3780;BME280;1905;52.482;9.802;2023-04-30T00:42:26;101820.00;;;8.37;70.42
3780;BME280;1905;52.482;9.802;2023-04-30T00:44:54;101830.66;;;8.31;70.20
3780;BME280;1905;52.482;9.802;2023-04-30T00:47:22;101836.84;;;8.26;69.78
3780;BME280;1905;52.482;9.802;2023-04-30T00:49:51;101834.22;;;8.24;70.19
3780;BME280;1905;52.482;9.802;2023-04-30T00:52:19;101834.25;;;8.23;69.78
3780;BME280;1905;52.482;9.802;2023-04-30T00:54:47;101841.38;;;8.18;70.48
3780;BME280;1905;52.482;9.802;2023-04-30T00:57:16;101844.06;;;8.12;69.91
3780;BME280;1905;52.482;9.802;2023-04-30T00:59:44;101845.88;;;8.08;70.31
3780;BME280;1905;52.482;9.802;2023-04-30T01:02:12;101857.34;;;8.04;70.47
3780;BME280;1905;52.482;9.802;2023-04-30T01:04:40;101849.50;;;8.00;70.66
3780;BME280;1905;52.482;9.802;2023-04-30T01:07:09;101849.50;;;8.00;70.52
3780;BME280;1905;52.482;9.802;2023-04-30T01:09:36;101853.13;;;7.93;70.04
3780;BME280;1905;52.482;9.802;2023-04-30T01:12:09;101854.00;;;7.92;70.68
3780;BME280;1905;52.482;9.802;2023-04-30T01:14:47;101852.31;;;7.88;70.71
3780;BME280;1905;52.482;9.802;2023-04-30T01:17:24;101858.53;;;7.80;70.25
3780;BME280;1905;52.482;9.802;2023-04-30T01:19:54;101855.94;;;7.79;70.28
3780;BME280;1905;52.482;9.802;2023-04-30T01:22:31;101860.38;;;7.75;70.66
3780;BME280;1905;52.482;9.802;2023-04-30T01:25:13;101862.16;;;7.73;70.47
3780;BME280;1905;52.482;9.802;2023-04-30T01:28:01;101863.09;;;7.66;70.68
3780;BME280;1905;52.482;9.802;2023-04-30T01:30:30;101866.63;;;7.64;70.60
3780;BME280;1905;52.482;9.802;2023-04-30T01:32:58;101871.06;;;7.62;70.35
3780;BME280;1905;52.482;9.802;2023-04-30T01:35:37;101869.41;;;7.53;71.01
3780;BME280;1905;52.482;9.802;2023-04-30T01:38:11;101871.22;;;7.48;70.85
3780;BME280;1905;52.482;9.802;2023-04-30T01:40:47;101871.22;;;7.48;70.96
3780;BME280;1905;52.482;9.802;2023-04-30T01:43:29;101871.28;;;7.42;71.14
3780;BME280;1905;52.482;9.802;2023-04-30T01:46:04;101869.53;;;7.44;70.56
3780;BME280;1905;52.482;9.802;2023-04-30T01:48:39;101878.34;;;7.37;71.05
3780;BME280;1905;52.482;9.802;2023-04-30T01:51:15;101885.44;;;7.32;71.17
3780;BME280;1905;52.482;9.802;2023-04-30T01:53:45;101881.03;;;7.31;70.82
3780;BME280;1905;52.482;9.802;2023-04-30T01:56:17;101883.75;;;7.28;70.86
3780;BME280;1905;52.482;9.802;2023-04-30T01:58:50;101882.03;;;7.23;70.92
3780;BME280;1905;52.482;9.802;2023-04-30T02:01:25;101879.44;;;7.19;71.08
3780;BME280;1905;52.482;9.802;2023-04-30T02:03:53;101890.84;;;7.17;70.87
3780;BME280;1905;52.482;9.802;2023-04-30T02:06:21;101887.38;;;7.13;70.98
3780;BME280;1905;52.482;9.802;2023-04-30T02:08:52;101885.59;;;7.15;71.32
3780;BME280;1905;52.482;9.802;2023-04-30T02:11:19;101872.59;;;7.06;70.82
3780;BME280;1905;52.482;9.802;2023-04-30T02:13:50;101883.97;;;7.04;71.05
3780;BME280;1905;52.482;9.802;2023-04-30T02:16:18;101884.03;;;7.01;70.92
3780;BME280;1905;52.482;9.802;2023-04-30T02:18:46;101881.41;;;6.96;71.24
3780;BME280;1905;52.482;9.802;2023-04-30T02:21:14;101887.56;;;6.95;71.06
3780;BME280;1905;52.482;9.802;2023-04-30T02:23:41;101881.47;;;6.92;70.54
3780;BME280;1905;52.482;9.802;2023-04-30T02:26:09;101891.09;;;6.91;70.84
3780;BME280;1905;52.482;9.802;2023-04-30T02:28:36;101892.94;;;6.85;70.87
3780;BME280;1905;52.482;9.802;2023-04-30T02:31:05;101887.69;;;6.82;71.08
3780;BME280;1905;52.482;9.802;2023-04-30T02:33:32;101885.97;;;6.79;71.42
3780;BME280;1905;52.482;9.802;2023-04-30T02:36:00;101895.59;;;6.77;70.77
3780;BME280;1905;52.482;9.802;2023-04-30T02:38:28;101888.63;;;6.75;70.93
3780;BME280;1905;52.482;9.802;2023-04-30T02:40:55;101891.28;;;6.69;71.07
3780;BME280;1905;52.482;9.802;2023-04-30T02:43:23;101889.59;;;6.62;71.42
3780;BME280;1905;52.482;9.802;2023-04-30T02:45:50;101894.84;;;6.65;71.47
3780;BME280;1905;52.482;9.802;2023-04-30T02:48:19;101887.91;;;6.57;71.08
3780;BME280;1905;52.482;9.802;2023-04-30T02:50:47;101892.31;;;6.51;71.48
3780;BME280;1905;52.482;9.802;2023-04-30T02:53:14;101895.81;;;6.51;71.96
3780;BME280;1905;52.482;9.802;2023-04-30T02:55:42;101895.84;;;6.48;71.52
3780;BME280;1905;52.482;9.802;2023-04-30T02:58:09;101899.34;;;6.47;71.53
3780;BME280;1905;52.482;9.802;2023-04-30T03:00:37;101897.59;;;6.45;71.45
3780;BME280;1905;52.482;9.802;2023-04-30T03:03:04;101902.00;;;6.41;71.30
3780;BME280;1905;52.482;9.802;2023-04-30T03:05:33;101912.56;;;6.35;71.88
3780;BME280;1905;52.482;9.802;2023-04-30T03:08:01;101905.56;;;6.34;71.54
3780;BME280;1905;52.482;9.802;2023-04-30T03:10:29;101897.72;;;6.33;71.58
3780;BME280;1905;52.482;9.802;2023-04-30T03:12:56;101910.84;;;6.28;71.67
3780;BME280;1905;52.482;9.802;2023-04-30T03:15:24;101902.13;;;6.25;71.53
3780;BME280;1905;52.482;9.802;2023-04-30T03:17:52;101903.91;;;6.21;71.58
3780;BME280;1905;52.482;9.802;2023-04-30T03:20:19;101907.38;;;6.20;71.79
3780;BME280;1905;52.482;9.802;2023-04-30T03:22:48;101909.16;;;6.15;71.93
3780;BME280;1905;52.482;9.802;2023-04-30T03:25:16;101908.28;;;6.15;71.67
3780;BME280;1905;52.482;9.802;2023-04-30T03:27:43;101909.19;;;6.12;71.70
3780;BME280;1905;52.482;9.802;2023-04-30T03:30:11;101910.09;;;6.07;71.50
3780;BME280;1905;52.482;9.802;2023-04-30T03:32:38;101909.28;;;6.00;71.85
3780;BME280;1905;52.482;9.802;2023-04-30T03:35:07;101904.88;;;6.02;71.70
3780;BME280;1905;52.482;9.802;2023-04-30T03:37:35;101915.41;;;5.97;72.04
3780;BME280;1905;52.482;9.802;2023-04-30T03:40:05;101911.06;;;5.92;72.32
3780;BME280;1905;52.482;9.802;2023-04-30T03:42:33;101906.69;;;5.88;72.30
3780;BME280;1905;52.482;9.802;2023-04-30T03:45:00;101918.09;;;5.87;71.98
3780;BME280;1905;52.482;9.802;2023-04-30T03:47:28;101917.19;;;5.83;71.92
3780;BME280;1905;52.482;9.802;2023-04-30T03:49:56;101916.31;;;5.83;71.81
3780;BME280;1905;52.482;9.802;2023-04-30T03:52:23;101914.59;;;5.76;72.23
3780;BME280;1905;52.482;9.802;2023-04-30T03:54:52;101918.09;;;5.75;72.11
3780;BME280;1905;52.482;9.802;2023-04-30T03:57:21;101925.09;;;5.73;72.38
3780;BME280;1905;52.482;9.802;2023-04-30T03:59:49;101924.22;;;5.72;72.04
3780;BME280;1905;52.482;9.802;2023-04-30T04:02:17;101930.34;;;5.73;71.78
3780;BME280;1905;52.482;9.802;2023-04-30T04:04:44;101945.19;;;5.72;72.03
3780;BME280;1905;52.482;9.802;2023-04-30T04:07:12;101939.94;;;5.66;71.78
3780;BME280;1905;52.482;9.802;2023-04-30T04:09:40;101940.84;;;5.64;72.23
3780;BME280;1905;52.482;9.802;2023-04-30T04:12:08;101948.69;;;5.61;72.11
3780;BME280;1905;52.482;9.802;2023-04-30T04:14:36;101944.34;;;5.60;72.29
3780;BME280;1905;52.482;9.802;2023-04-30T04:17:04;101947.84;;;5.56;72.34
3780;BME280;1905;52.482;9.802;2023-04-30T04:19:32;101948.72;;;5.56;71.53
3780;BME280;1905;52.482;9.802;2023-04-30T04:21:59;101951.34;;;5.53;72.29
3780;BME280;1905;52.482;9.802;2023-04-30T04:24:27;101955.72;;;5.53;71.85
3780;BME280;1905;52.482;9.802;2023-04-30T04:26:54;101962.72;;;5.45;72.03
3780;BME280;1905;52.482;9.802;2023-04-30T04:29:23;101969.72;;;5.46;72.63
3780;BME280;1905;52.482;9.802;2023-04-30T04:31:52;101967.09;;;5.46;72.52
3780;BME280;1905;52.482;9.802;2023-04-30T04:34:21;101966.22;;;5.40;71.86
3780;BME280;1905;52.482;9.802;2023-04-30T04:36:48;101963.59;;;5.43;71.83
3780;BME280;1905;52.482;9.802;2023-04-30T04:39:16;101971.47;;;5.39;72.91
3780;BME280;1905;52.482;9.802;2023-04-30T04:41:44;101970.59;;;5.37;72.62
3780;BME280;1905;52.482;9.802;2023-04-30T04:44:12;101985.44;;;5.32;71.92
3780;BME280;1905;52.482;9.802;2023-04-30T04:46:39;101979.34;;;5.34;72.21
3780;BME280;1905;52.482;9.802;2023-04-30T04:49:09;101976.72;;;5.34;72.41
3780;BME280;1905;52.482;9.802;2023-04-30T04:51:36;101968.00;;;5.32;72.33
3780;BME280;1905;52.482;9.802;2023-04-30T04:54:05;101980.22;;;5.32;72.11
3780;BME280;1905;52.482;9.802;2023-04-30T04:56:33;101981.94;;;5.31;72.40
3780;BME280;1905;52.482;9.802;2023-04-30T04:59:01;101984.56;;;5.31;72.28
3780;BME280;1905;52.482;9.802;2023-04-30T05:01:28;101993.31;;;5.29;72.20
3780;BME280;1905;52.482;9.802;2023-04-30T05:03:56;101988.06;;;5.27;72.03
3780;BME280;1905;52.482;9.802;2023-04-30T05:06:25;101992.44;;;5.28;72.62
3780;BME280;1905;52.482;9.802;2023-04-30T05:08:55;101991.56;;;5.29;72.46
3780;BME280;1905;52.482;9.802;2023-04-30T05:11:22;101991.56;;;5.31;72.60
3780;BME280;1905;52.482;9.802;2023-04-30T05:13:50;101992.44;;;5.25;72.16
3780;BME280;1905;52.482;9.802;2023-04-30T05:16:18;101997.66;;;5.25;72.02
3780;BME280;1905;52.482;9.802;2023-04-30T05:18:45;101995.03;;;5.25;72.17
3780;BME280;1905;52.482;9.802;2023-04-30T05:21:13;101993.31;;;5.24;72.78
3780;BME280;1905;52.482;9.802;2023-04-30T05:23:42;101997.66;;;5.25;72.03
3780;BME280;1905;52.482;9.802;2023-04-30T05:26:10;101989.81;;;5.22;71.98
3780;BME280;1905;52.482;9.802;2023-04-30T05:28:37;101994.19;;;5.23;72.80
3780;BME280;1905;52.482;9.802;2023-04-30T05:31:05;102001.16;;;5.20;72.32
3780;BME280;1905;52.482;9.802;2023-04-30T05:33:32;102002.91;;;5.21;72.74
3780;BME280;1905;52.482;9.802;2023-04-30T05:36:02;101999.41;;;5.22;72.66
3780;BME280;1905;52.482;9.802;2023-04-30T05:38:30;102004.66;;;5.20;72.45
3780;BME280;1905;52.482;9.802;2023-04-30T05:40:59;102012.50;;;5.23;72.54
3780;BME280;1905;52.482;9.802;2023-04-30T05:43:27;102012.50;;;5.23;72.27
3780;BME280;1905;52.482;9.802;2023-04-30T05:46:00;102010.75;;;5.25;72.06
3780;BME280;1905;52.482;9.802;2023-04-30T05:48:29;102014.25;;;5.23;72.27
3780;BME280;1905;52.482;9.802;2023-04-30T05:50:56;102010.78;;;5.27;72.48
3780;BME280;1905;52.482;9.802;2023-04-30T05:53:24;102016.88;;;5.24;71.97
3780;BME280;1905;52.482;9.802;2023-04-30T05:55:51;102012.53;;;5.29;72.31
3780;BME280;1905;52.482;9.802;2023-04-30T05:58:20;102008.13;;;5.33;72.12
3780;BME280;1905;52.482;9.802;2023-04-30T06:00:48;102016.00;;;5.40;73.34
3780;BME280;1905;52.482;9.802;2023-04-30T06:03:17;102015.97;;;5.43;74.71
3780;BME280;1905;52.482;9.802;2023-04-30T06:05:46;102018.59;;;5.43;72.88
3780;BME280;1905;52.482;9.802;2023-04-30T06:08:13;102021.22;;;5.47;73.30
3780;BME280;1905;52.482;9.802;2023-04-30T06:10:41;102018.59;;;5.51;73.84
3780;BME280;1905;52.482;9.802;2023-04-30T06:13:09;102026.44;;;5.50;72.60
3780;BME280;1905;52.482;9.802;2023-04-30T06:15:38;102022.97;;;5.57;74.14
3780;BME280;1905;52.482;9.802;2023-04-30T06:18:05;102029.94;;;5.61;74.73
3780;BME280;1905;52.482;9.802;2023-04-30T06:20:33;102031.69;;;5.65;74.61
3780;BME280;1905;52.482;9.802;2023-04-30T06:23:00;102031.66;;;5.71;76.33
3780;BME280;1905;52.482;9.802;2023-04-30T06:25:29;102031.63;;;5.74;74.56
3780;BME280;1905;52.482;9.802;2023-04-30T06:27:56;102035.16;;;5.76;73.54
3780;BME280;1905;52.482;9.802;2023-04-30T06:30:24;102036.03;;;5.78;73.84
3780;BME280;1905;52.482;9.802;2023-04-30T06:32:53;102030.78;;;5.81;74.31
3780;BME280;1905;52.482;9.802;2023-04-30T06:35:21;102034.25;;;5.87;74.50
3780;BME280;1905;52.482;9.802;2023-04-30T06:37:48;102033.38;;;5.90;74.07
3780;BME280;1905;52.482;9.802;2023-04-30T06:40:16;102022.00;;;5.95;75.04
3780;BME280;1905;52.482;9.802;2023-04-30T06:42:44;102034.22;;;6.03;75.11
3780;BME280;1905;52.482;9.802;2023-04-30T06:45:13;102025.47;;;6.05;74.71
3780;BME280;1905;52.482;9.802;2023-04-30T06:47:41;102022.84;;;6.11;73.07
3780;BME280;1905;52.482;9.802;2023-04-30T06:50:12;102020.19;;;6.17;74.81
3780;BME280;1905;52.482;9.802;2023-04-30T06:52:40;102019.31;;;6.21;73.99
3780;BME280;1905;52.482;9.802;2023-04-30T06:55:08;102025.41;;;6.23;73.04
3780;BME280;1905;52.482;9.802;2023-04-30T06:57:36;102027.13;;;6.30;72.51
3780;BME280;1905;52.482;9.802;2023-04-30T07:00:04;102024.47;;;6.36;72.81
3780;BME280;1905;52.482;9.802;2023-04-30T07:02:32;102030.59;;;6.38;72.45
3780;BME280;1905;52.482;9.802;2023-04-30T07:04:59;102033.16;;;6.44;72.86
3780;BME280;1905;52.482;9.802;2023-04-30T07:07:28;102029.63;;;6.53;72.64
3780;BME280;1905;52.482;9.802;2023-04-30T07:09:56;102024.38;;;6.57;73.00
3780;BME280;1905;52.482;9.802;2023-04-30T07:12:24;102028.69;;;6.65;72.55
3780;BME280;1905;52.482;9.802;2023-04-30T07:14:52;102024.28;;;6.70;71.77
3780;BME280;1905;52.482;9.802;2023-04-30T07:17:19;102031.22;;;6.77;71.79
3780;BME280;1905;52.482;9.802;2023-04-30T07:19:47;102034.72;;;6.80;72.20
3780;BME280;1905;52.482;9.802;2023-04-30T07:22:14;102038.16;;;6.93;72.01
3780;BME280;1905;52.482;9.802;2023-04-30T07:24:43;102038.16;;;6.93;71.58
3780;BME280;1905;52.482;9.802;2023-04-30T07:27:10;102038.06;;;6.99;72.22
3780;BME280;1905;52.482;9.802;2023-04-30T07:29:38;102036.28;;;7.07;71.53
3780;BME280;1905;52.482;9.802;2023-04-30T07:32:05;102041.47;;;7.16;71.40
3780;BME280;1905;52.482;9.802;2023-04-30T07:34:33;102037.91;;;7.22;71.16
3780;BME280;1905;52.482;9.802;2023-04-30T07:37:01;102041.38;;;7.28;70.96
3780;BME280;1905;52.482;9.802;2023-04-30T07:39:29;102036.03;;;7.37;70.92
3780;BME280;1905;52.482;9.802;2023-04-30T07:41:58;102042.09;;;7.44;71.34
3780;BME280;1905;52.482;9.802;2023-04-30T07:44:28;102032.38;;;7.53;70.27
3780;BME280;1905;52.482;9.802;2023-04-30T07:46:55;102035.78;;;7.64;70.04
3780;BME280;1905;52.482;9.802;2023-04-30T07:49:23;102035.75;;;7.67;69.84
3780;BME280;1905;52.482;9.802;2023-04-30T07:51:51;102040.09;;;7.71;69.62
3780;BME280;1905;52.482;9.802;2023-04-30T07:54:18;102037.34;;;7.80;69.70
3780;BME280;1905;52.482;9.802;2023-04-30T07:56:46;102037.28;;;7.87;69.77
3780;BME280;1905;52.482;9.802;2023-04-30T07:59:16;102038.97;;;7.94;69.33
3780;BME280;1905;52.482;9.802;2023-04-30T08:01:44;102044.13;;;8.04;69.74
3780;BME280;1905;52.482;9.802;2023-04-30T08:04:11;102041.38;;;8.13;68.95
3780;BME280;1905;52.482;9.802;2023-04-30T08:06:39;102042.19;;;8.18;68.73
3780;BME280;1905;52.482;9.802;2023-04-30T08:09:06;102045.63;;;8.28;69.27
3780;BME280;1905;52.482;9.802;2023-04-30T08:11:34;102031.41;;;8.41;69.08
3780;BME280;1905;52.482;9.802;2023-04-30T08:14:01;102035.69;;;8.50;68.93
3780;BME280;1905;52.482;9.802;2023-04-30T08:16:31;102034.69;;;8.58;67.66
3780;BME280;1905;52.482;9.802;2023-04-30T08:18:58;102033.63;;;8.70;67.16
3780;BME280;1905;52.482;9.802;2023-04-30T08:21:26;102036.94;;;8.84;67.41
3780;BME280;1905;52.482;9.802;2023-04-30T08:23:54;102042.91;;;8.96;67.21
3780;BME280;1905;52.482;9.802;2023-04-30T08:26:22;102047.06;;;9.11;67.72
3780;BME280;1905;52.482;9.802;2023-04-30T08:28:50;102039.84;;;9.24;67.02
3780;BME280;1905;52.482;9.802;2023-04-30T08:31:17;102036.94;;;9.39;66.99
3780;BME280;1905;52.482;9.802;2023-04-30T08:33:46;102033.25;;;9.49;67.07
3780;BME280;1905;52.482;9.802;2023-04-30T08:36:14;102040.88;;;9.66;67.00
3780;BME280;1905;52.482;9.802;2023-04-30T08:38:41;102031.03;;;9.75;64.55
3780;BME280;1905;52.482;9.802;2023-04-30T08:41:10;102034.13;;;9.97;67.51
3780;BME280;1905;52.482;9.802;2023-04-30T08:43:38;102026.00;;;10.07;66.50
3780;BME280;1905;52.482;9.802;2023-04-30T08:46:06;102027.56;;;10.19;64.04
3780;BME280;1905;52.482;9.802;2023-04-30T08:48:34;102027.28;;;10.33;64.75
3780;BME280;1905;52.482;9.802;2023-04-30T08:51:03;102020.59;;;10.55;68.50
3780;BME280;1905;52.482;9.802;2023-04-30T08:53:34;102016.09;;;10.60;64.75
3780;BME280;1905;52.482;9.802;2023-04-30T08:56:02;102009.56;;;10.76;64.79
3780;BME280;1905;52.482;9.802;2023-04-30T08:58:30;102001.28;;;10.91;64.66
3780;BME280;1905;52.482;9.802;2023-04-30T09:00:57;102003.72;;;11.00;61.25
3780;BME280;1905;52.482;9.802;2023-04-30T09:03:25;102008.63;;;11.15;63.09
3780;BME280;1905;52.482;9.802;2023-04-30T09:05:54;102006.56;;;11.26;62.17
3780;BME280;1905;52.482;9.802;2023-04-30T09:08:42;102008.81;;;11.42;61.88
3780;BME280;1905;52.482;9.802;2023-04-30T09:11:20;102018.34;;;11.49;60.99
3780;BME280;1905;52.482;9.802;2023-04-30T09:13:49;102018.19;;;11.55;59.66
3780;BME280;1905;52.482;9.802;2023-04-30T09:16:19;102011.31;;;11.48;59.01
3780;BME280;1905;52.482;9.802;2023-04-30T09:18:47;102015.44;;;11.58;61.57
3780;BME280;1905;52.482;9.802;2023-04-30T09:21:14;102008.13;;;11.67;61.80
3780;BME280;1905;52.482;9.802;2023-04-30T09:23:55;102015.91;;;11.75;60.67
3780;BME280;1905;52.482;9.802;2023-04-30T09:26:31;102010.50;;;11.79;60.47
3780;BME280;1905;52.482;9.802;2023-04-30T09:28:59;102006.78;;;11.85;61.35
3780;BME280;1905;52.482;9.802;2023-04-30T09:31:33;102006.72;;;11.88;60.88
3780;BME280;1905;52.482;9.802;2023-04-30T09:34:01;102007.72;;;11.84;59.92
3780;BME280;1905;52.482;9.802;2023-04-30T09:36:29;102008.47;;;11.89;60.49
3780;BME280;1905;52.482;9.802;2023-04-30T09:39:06;102011.03;;;11.92;60.19
3780;BME280;1905;52.482;9.802;2023-04-30T09:41:37;101994.31;;;11.90;60.12
3780;BME280;1905;52.482;9.802;2023-04-30T09:44:04;101997.94;;;11.87;59.18
3780;BME280;1905;52.482;9.802;2023-04-30T09:46:33;101992.66;;;11.86;57.58
3780;BME280;1905;52.482;9.802;2023-04-30T09:49:04;101991.03;;;11.82;58.93
3780;BME280;1905;52.482;9.802;2023-04-30T09:51:32;101993.59;;;11.83;59.38
3780;BME280;1905;52.482;9.802;2023-04-30T09:54:02;101987.44;;;11.83;59.83
3780;BME280;1905;52.482;9.802;2023-04-30T09:56:34;101985.72;;;11.82;59.54
3780;BME280;1905;52.482;9.802;2023-04-30T09:59:06;101979.66;;;11.77;59.10
3780;BME280;1905;52.482;9.802;2023-04-30T10:01:35;101975.31;;;11.76;59.40
3780;BME280;1905;52.482;9.802;2023-04-30T10:04:06;101979.81;;;11.72;58.54
3780;BME280;1905;52.482;9.802;2023-04-30T10:06:34;101968.34;;;11.72;59.23
3780;BME280;1905;52.482;9.802;2023-04-30T10:09:04;101967.38;;;11.76;59.64
3780;BME280;1905;52.482;9.802;2023-04-30T10:11:36;101969.06;;;11.77;59.45
3780;BME280;1905;52.482;9.802;2023-04-30T10:14:08;101968.25;;;11.75;59.87
3780;BME280;1905;52.482;9.802;2023-04-30T10:16:41;101965.66;;;11.73;59.46
3780;BME280;1905;52.482;9.802;2023-04-30T10:19:13;101960.22;;;11.79;58.27
3780;BME280;1905;52.482;9.802;2023-04-30T10:21:41;101965.63;;;11.75;59.69
3780;BME280;1905;52.482;9.802;2023-04-30T10:24:12;101961.13;;;11.77;60.20
3780;BME280;1905;52.482;9.802;2023-04-30T10:26:42;101958.41;;;11.80;59.78
3780;BME280;1905;52.482;9.802;2023-04-30T10:29:12;101959.34;;;11.79;58.96
3780;BME280;1905;52.482;9.802;2023-04-30T10:31:40;101966.44;;;11.77;59.94
3780;BME280;1905;52.482;9.802;2023-04-30T10:34:18;101962.81;;;11.81;59.96
3780;BME280;1905;52.482;9.802;2023-04-30T10:36:53;101969.84;;;11.82;58.55
3780;BME280;1905;52.482;9.802;2023-04-30T10:39:25;101963.53;;;11.86;57.68
3780;BME280;1905;52.482;9.802;2023-04-30T10:42:01;101960.97;;;11.83;59.14
3780;BME280;1905;52.482;9.802;2023-04-30T10:44:31;101956.50;;;11.85;59.62
3780;BME280;1905;52.482;9.802;2023-04-30T10:47:00;101953.75;;;11.88;58.39
3780;BME280;1905;52.482;9.802;2023-04-30T10:49:28;101947.44;;;11.93;58.61
3780;BME280;1905;52.482;9.802;2023-04-30T10:51:59;101935.28;;;11.86;58.93
3780;BME280;1905;52.482;9.802;2023-04-30T10:54:27;101937.13;;;11.84;58.11
3780;BME280;1905;52.482;9.802;2023-04-30T10:57:09;101934.97;;;11.97;59.00
3780;BME280;1905;52.482;9.802;2023-04-30T10:59:41;101930.66;;;11.94;58.12
3780;BME280;1905;52.482;9.802;2023-04-30T11:02:10;101932.41;;;11.94;58.61
3780;BME280;1905;52.482;9.802;2023-04-30T11:05:10;101927.22;;;11.91;59.44
3780;BME280;1905;52.482;9.802;2023-04-30T11:07:49;101921.91;;;11.91;58.82
3780;BME280;1905;52.482;9.802;2023-04-30T11:10:20;101919.91;;;11.99;58.87
3780;BME280;1905;52.482;9.802;2023-04-30T11:12:50;101926.47;;;12.15;58.12
3780;BME280;1905;52.482;9.802;2023-04-30T11:15:20;101918.84;;;12.06;58.50
3780;BME280;1905;52.482;9.802;2023-04-30T11:17:48;101910.97;;;12.03;58.14
3780;BME280;1905;52.482;9.802;2023-04-30T11:20:19;101910.97;;;12.03;59.21
3780;BME280;1905;52.482;9.802;2023-04-30T11:22:47;101918.53;;;12.15;58.15
3780;BME280;1905;52.482;9.802;2023-04-30T11:25:18;101915.72;;;12.21;57.98
3780;BME280;1905;52.482;9.802;2023-04-30T11:27:45;101912.16;;;12.22;58.38
3780;BME280;1905;52.482;9.802;2023-04-30T11:30:16;101913.88;;;12.23;57.87
3780;BME280;1905;52.482;9.802;2023-04-30T11:32:45;101908.78;;;12.17;57.81
3780;BME280;1905;52.482;9.802;2023-04-30T11:35:16;101909.34;;;12.27;58.82
3780;BME280;1905;52.482;9.802;2023-04-30T11:37:44;101909.41;;;12.25;58.25
3780;BME280;1905;52.482;9.802;2023-04-30T11:40:13;101914.09;;;12.16;57.10
3780;BME280;1905;52.482;9.802;2023-04-30T11:42:42;101908.66;;;12.20;57.80
3780;BME280;1905;52.482;9.802;2023-04-30T11:45:13;101903.28;;;12.23;57.14
3780;BME280;1905;52.482;9.802;2023-04-30T11:47:45;101896.91;;;12.29;57.81
3780;BME280;1905;52.482;9.802;2023-04-30T11:50:16;101890.38;;;12.40;57.94
3780;BME280;1905;52.482;9.802;2023-04-30T11:52:48;101893.84;;;12.42;57.70
3780;BME280;1905;52.482;9.802;2023-04-30T11:55:17;101896.91;;;12.57;55.78
3780;BME280;1905;52.482;9.802;2023-04-30T11:57:46;101888.88;;;12.60;57.46
3780;BME280;1905;52.482;9.802;2023-04-30T12:00:16;101892.34;;;12.62;57.12
3780;BME280;1905;52.482;9.802;2023-04-30T12:02:46;101890.38;;;12.68;55.19
3780;BME280;1905;52.482;9.802;2023-04-30T12:05:16;101887.75;;;12.67;56.06
3780;BME280;1905;52.482;9.802;2023-04-30T12:07:45;101882.56;;;12.64;56.75
3780;BME280;1905;52.482;9.802;2023-04-30T12:10:13;101878.09;;;12.66;57.30
3780;BME280;1905;52.482;9.802;2023-04-30T12:12:42;101884.28;;;12.65;57.72
3780;BME280;1905;52.482;9.802;2023-04-30T12:15:14;101875.34;;;12.69;57.30
3780;BME280;1905;52.482;9.802;2023-04-30T12:17:42;101878.78;;;12.71;56.85
3780;BME280;1905;52.482;9.802;2023-04-30T12:20:12;101874.28;;;12.73;56.87
3780;BME280;1905;52.482;9.802;2023-04-30T12:22:41;101876.75;;;12.79;57.38
3780;BME280;1905;52.482;9.802;2023-04-30T12:25:12;101871.44;;;12.79;57.52
3780;BME280;1905;52.482;9.802;2023-04-30T12:27:40;101866.69;;;12.88;57.09
3780;BME280;1905;52.482;9.802;2023-04-30T12:30:08;101867.44;;;12.92;57.14
3780;BME280;1905;52.482;9.802;2023-04-30T12:32:38;101862.06;;;12.95;57.28
3780;BME280;1905;52.482;9.802;2023-04-30T12:35:07;101869.00;;;12.99;56.15
3780;BME280;1905;52.482;9.802;2023-04-30T12:37:40;101863.38;;;13.08;57.02
3780;BME280;1905;52.482;9.802;2023-04-30T12:40:09;101867.44;;;13.18;54.96
3780;BME280;1905;52.482;9.802;2023-04-30T12:42:37;101866.63;;;13.16;56.53
3780;BME280;1905;52.482;9.802;2023-04-30T12:45:06;101858.47;;;13.22;56.92
3780;BME280;1905;52.482;9.802;2023-04-30T12:47:37;101861.78;;;13.29;56.83
3780;BME280;1905;52.482;9.802;2023-04-30T12:50:08;101859.53;;;13.41;54.50
3780;BME280;1905;52.482;9.802;2023-04-30T12:52:38;101854.22;;;13.41;56.98
3780;BME280;1905;52.482;9.802;2023-04-30T12:55:23;101853.31;;;13.42;58.35
3780;BME280;1905;52.482;9.802;2023-04-30T12:58:02;101843.28;;;13.50;55.95
3780;BME280;1905;52.482;9.802;2023-04-30T13:00:42;101843.88;;;13.58;57.04
3780;BME280;1905;52.482;9.802;2023-04-30T13:03:10;101843.97;;;13.55;57.78
3780;BME280;1905;52.482;9.802;2023-04-30T13:05:39;101831.50;;;13.57;57.31
3780;BME280;1905;52.482;9.802;2023-04-30T13:08:08;101825.84;;;13.66;58.45
3780;BME280;1905;52.482;9.802;2023-04-30T13:10:39;101830.00;;;13.73;57.58
3780;BME280;1905;52.482;9.802;2023-04-30T13:13:09;101827.88;;;13.83;56.22
3780;BME280;1905;52.482;9.802;2023-04-30T13:15:37;101831.13;;;13.90;58.73
3780;BME280;1905;52.482;9.802;2023-04-30T13:18:06;101821.06;;;13.98;57.72
3780;BME280;1905;52.482;9.802;2023-04-30T13:20:35;101824.41;;;14.03;56.46
3780;BME280;1905;52.482;9.802;2023-04-30T13:23:03;101815.41;;;14.07;56.68
3780;BME280;1905;52.482;9.802;2023-04-30T13:25:34;101816.75;;;14.17;56.76
3780;BME280;1905;52.482;9.802;2023-04-30T13:28:02;101812.94;;;14.24;55.24